Time;durP1;ratioP1;P1;durP2;ratioP2;P2;SDS_P1;SDS_P2;PMS_P1;PMS_P2;Temp;Humidity;BMP_temperature;BMP_pressure;BME280_temperature;BME280_humidity;BME280_pressure;Samples;Min_cycle;Max_cycle;Signal;HPM_P1;HPM_P2
2023/10/08 00:01:22;;;;;;;12.65;4.82;;;;;;;17.34;81.42;102103.06;4967492;28;20668;-74
2023/10/08 00:03:50;;;;;;;10.55;5.00;;;;;;;17.34;81.15;102104.84;4967482;28;20054;-74
2023/10/08 00:06:20;;;;;;;11.45;5.20;;;;;;;17.34;81.11;102100.41;4966355;28;20051;-75
2023/10/08 00:08:50;;;;;;;10.90;5.55;;;;;;;17.33;81.19;102108.44;4969839;28;20035;-74
2023/10/08 00:11:18;;;;;;;11.48;4.78;;;;;;;17.31;81.14;102103.19;4970200;28;20125;-74
2023/10/08 00:13:48;;;;;;;7.78;4.90;;;;;;;17.28;81.16;102097.97;4950048;28;20058;-74
2023/10/08 00:16:16;;;;;;;12.63;5.22;;;;;;;17.28;81.64;102113.09;4953982;28;20061;-74
2023/10/08 00:18:51;;;;;;;12.15;5.25;;;;;;;17.25;81.28;102119.38;4962042;28;20043;-75
2023/10/08 00:21:27;;;;;;;11.00;5.28;;;;;;;17.22;81.39;102120.38;4961952;28;20495;-74
2023/10/08 00:23:58;;;;;;;9.05;5.07;;;;;;;17.20;81.52;102122.22;4954917;28;20102;-74
2023/10/08 00:26:31;;;;;;;10.38;5.28;;;;;;;17.20;81.66;102134.69;4949420;28;20049;-76
2023/10/08 00:29:45;;;;;;;9.63;5.63;;;;;;;17.16;81.54;102131.28;4961313;28;20049;-76
2023/10/08 00:31:56;;;;;;;10.20;5.10;;;;;;;17.12;81.57;102124.31;4965459;28;20467;-75
2023/10/08 00:34:24;;;;;;;13.75;5.75;;;;;;;17.06;81.60;102120.09;4967627;28;20054;-75
2023/10/08 00:36:51;;;;;;;10.68;5.65;;;;;;;17.04;81.91;102123.75;4959251;28;20696;-77
2023/10/08 00:39:26;;;;;;;10.93;5.50;;;;;;;17.00;81.86;102114.13;4973787;28;20066;-76
2023/10/08 00:41:59;;;;;;;9.82;5.45;;;;;;;17.01;81.89;102121.19;4982371;28;20587;-76
2023/10/08 00:44:30;;;;;;;10.90;5.45;;;;;;;16.97;81.74;102125.75;4969528;28;20046;-76
2023/10/08 00:47:00;;;;;;;11.55;5.53;;;;;;;16.92;82.00;102133.03;4969679;28;20057;-74
2023/10/08 00:49:48;;;;;;;14.55;5.40;;;;;;;16.90;82.54;102153.53;4967079;28;20054;-75
2023/10/08 00:54:54;;;;;;;11.20;5.60;;;;;;;16.83;82.92;102136.03;4970246;28;20093;-75
2023/10/08 00:57:29;;;;;;;12.07;5.82;;;;;;;16.81;82.82;102148.53;4969794;28;20053;-75
2023/10/08 01:00:00;;;;;;;12.13;6.03;;;;;;;16.80;83.19;102152.97;4970502;28;20070;-74
2023/10/08 01:02:48;;;;;;;11.30;5.63;;;;;;;16.77;83.40;102140.63;4968596;28;20111;-75
2023/10/08 01:05:25;;;;;;;13.48;6.32;;;;;;;16.77;83.46;102161.09;4961722;28;20134;-74
2023/10/08 01:07:55;;;;;;;12.68;5.68;;;;;;;16.74;83.90;102155.88;4966438;28;20098;-73
2023/10/08 01:10:24;;;;;;;12.10;5.68;;;;;;;16.69;83.76;102147.16;4969091;28;20046;-74
2023/10/08 01:15:28;;;;;;;11.88;6.07;;;;;;;16.63;83.87;102142.94;4970755;28;20134;-72
2023/10/08 01:18:00;;;;;;;12.90;5.78;;;;;;;16.60;83.97;102146.56;4968115;28;20157;-73
2023/10/08 01:20:34;;;;;;;13.30;5.75;;;;;;;16.60;84.15;102138.56;4969471;28;20072;-72
2023/10/08 01:23:12;;;;;;;9.70;5.40;;;;;;;16.59;84.24;102131.50;4984715;28;20122;-72
2023/10/08 01:25:42;;;;;;;13.07;5.93;;;;;;;16.60;84.18;102129.72;4970211;28;20042;-73
2023/10/08 01:28:25;;;;;;;13.10;5.90;;;;;;;16.60;83.85;102127.06;4967951;28;20799;-73
2023/10/08 01:30:54;;;;;;;16.00;6.07;;;;;;;16.59;84.16;102146.63;4970087;28;20082;-73
2023/10/08 01:33:22;;;;;;;13.25;6.35;;;;;;;16.57;84.29;102130.72;4968627;28;20337;-73
2023/10/08 01:35:49;;;;;;;11.27;5.65;;;;;;;16.57;84.41;102127.16;4967790;28;20050;-73
2023/10/08 01:38:23;;;;;;;13.15;5.80;;;;;;;16.56;84.11;102114.78;4968169;28;20049;-73
2023/10/08 01:40:51;;;;;;;11.10;5.63;;;;;;;16.55;84.04;102118.34;4968850;28;20525;-73
2023/10/08 01:43:20;;;;;;;13.80;5.60;;;;;;;16.52;84.29;102123.81;4968764;28;20057;-73
2023/10/08 01:45:51;;;;;;;14.60;5.68;;;;;;;16.49;84.33;102130.09;4961552;28;20083;-73
2023/10/08 01:48:25;;;;;;;11.98;5.72;;;;;;;16.48;84.26;102136.38;4982863;28;20431;-74
2023/10/08 01:51:01;;;;;;;10.73;6.00;;;;;;;16.48;84.24;102132.81;4968246;28;20086;-74
2023/10/08 01:53:28;;;;;;;13.57;5.45;;;;;;;16.46;84.46;102136.41;4967182;28;20049;-74
2023/10/08 01:55:56;;;;;;;12.23;5.60;;;;;;;16.51;84.12;102127.41;4967545;28;20054;-74
2023/10/08 01:58:23;;;;;;;11.07;5.22;;;;;;;16.50;84.20;102123.84;4966826;28;20047;-74
2023/10/08 02:00:52;;;;;;;14.07;6.18;;;;;;;16.49;84.31;102119.44;4967698;28;20039;-73
2023/10/08 02:03:19;;;;;;;12.57;5.53;;;;;;;16.50;83.71;102139.81;4967816;28;20098;-75
2023/10/08 02:05:47;;;;;;;10.40;5.22;;;;;;;16.48;83.83;102146.13;4968813;28;20129;-75
2023/10/08 02:08:16;;;;;;;11.98;5.15;;;;;;;16.45;83.70;102139.97;4968842;28;20043;-75
2023/10/08 02:10:47;;;;;;;10.82;4.80;;;;;;;16.42;84.10;102141.88;4967923;28;20037;-76
2023/10/08 02:13:15;;;;;;;12.05;5.32;;;;;;;16.40;84.10;102136.63;4967906;28;20039;-74
2023/10/08 02:15:52;;;;;;;14.45;5.60;;;;;;;16.40;84.08;102135.72;4968219;28;20039;-74
2023/10/08 02:18:21;;;;;;;11.45;5.07;;;;;;;16.39;84.08;102137.53;4968319;28;20043;-73
2023/10/08 02:20:48;;;;;;;8.70;4.72;;;;;;;16.37;83.89;102134.06;4966661;28;20039;-75
2023/10/08 02:23:17;;;;;;;10.93;5.55;;;;;;;16.35;83.66;102138.56;4950849;28;20072;-76
2023/10/08 02:25:45;;;;;;;15.02;5.40;;;;;;;16.34;83.85;102155.44;4969504;28;20051;-74
2023/10/08 02:28:15;;;;;;;13.38;5.32;;;;;;;16.33;83.71;102163.47;4968826;28;20046;-73
2023/10/08 02:30:43;;;;;;;13.32;5.40;;;;;;;16.29;83.84;102162.72;4968840;28;20070;-73
2023/10/08 02:33:16;;;;;;;13.13;5.30;;;;;;;16.26;83.75;102168.13;4968618;28;20137;-73
2023/10/08 02:35:46;;;;;;;13.82;5.38;;;;;;;16.23;84.25;102153.16;4962266;28;20035;-74
2023/10/08 02:38:18;;;;;;;12.40;5.25;;;;;;;16.21;84.15;102168.28;4960653;28;20499;-74
2023/10/08 02:40:47;;;;;;;10.98;5.03;;;;;;;16.19;84.21;102167.47;4967762;28;20121;-73
2023/10/08 02:43:17;;;;;;;11.48;5.22;;;;;;;16.18;84.29;102172.84;4968915;28;20081;-74
2023/10/08 02:45:49;;;;;;;10.75;4.93;;;;;;;16.18;84.33;102180.81;4967295;28;20043;-73
2023/10/08 02:48:20;;;;;;;12.48;5.28;;;;;;;16.17;84.29;102163.13;4967079;28;20126;-75
2023/10/08 02:50:48;;;;;;;11.60;5.60;;;;;;;16.17;84.28;102182.63;4966262;28;20113;-74
2023/10/08 02:53:20;;;;;;;14.57;5.45;;;;;;;16.14;84.49;102183.56;4966280;28;20488;-74
2023/10/08 02:55:49;;;;;;;12.15;5.72;;;;;;;16.12;84.37;102176.56;4968157;28;20042;-73
2023/10/08 02:58:18;;;;;;;13.60;5.20;;;;;;;16.09;84.35;102198.81;4982003;28;20051;-74
2023/10/08 03:00:48;;;;;;;16.40;5.72;;;;;;;16.08;84.33;102212.16;4959454;28;20170;-74
2023/10/08 03:03:19;;;;;;;12.40;5.85;;;;;;;16.06;84.60;102200.72;4976094;28;20050;-75
2023/10/08 03:05:50;;;;;;;11.77;5.70;;;;;;;16.02;84.89;102194.63;4965046;28;20071;-75
2023/10/08 03:08:20;;;;;;;14.27;5.63;;;;;;;16.02;85.14;102188.44;4967507;28;20043;-74
2023/10/08 03:10:55;;;;;;;13.18;5.95;;;;;;;16.02;85.20;102152.09;4966437;28;20042;-75
2023/10/08 03:13:23;;;;;;;16.40;6.07;;;;;;;16.02;84.98;102181.34;4983056;28;20428;-74
2023/10/08 03:18:36;;;;;;;13.70;5.88;;;;;;;15.97;85.14;102183.25;4965835;28;20049;-74
2023/10/08 03:21:43;;;;;;;14.40;5.95;;;;;;;15.94;85.44;102173.59;4953355;28;20046;-74
2023/10/08 03:24:12;;;;;;;10.77;5.97;;;;;;;15.89;85.47;102166.69;4954687;28;20043;-75
2023/10/08 03:26:40;;;;;;;13.95;5.88;;;;;;;15.88;85.55;102194.19;4968099;28;20054;-76
2023/10/08 03:29:17;;;;;;;14.90;5.97;;;;;;;15.82;85.84;102189.88;4968979;28;20043;-76
2023/10/08 03:34:19;;;;;;;14.63;6.10;;;;;;;15.78;85.87;102188.22;4969618;28;20070;-77
2023/10/08 03:36:49;;;;;;;12.32;5.85;;;;;;;15.77;86.00;102197.16;4967837;28;20411;-76
2023/10/08 03:39:18;;;;;;;14.60;5.97;;;;;;;15.75;86.00;102173.25;4964203;28;20050;-75
2023/10/08 03:42:05;;;;;;;13.80;6.15;;;;;;;15.76;nan;102192.75;4967621;28;20150;-75
2023/10/08 03:44:37;;;;;;;14.23;6.13;;;;;;;15.72;86.30;102183.97;4967978;28;20050;-75
2023/10/08 03:47:10;;;;;;;15.13;6.03;;;;;;;15.71;86.57;102203.53;4965304;28;20141;-75
2023/10/08 03:49:45;;;;;;;11.60;5.90;;;;;;;15.67;86.41;102205.38;4953386;28;20043;-75
2023/10/08 03:52:15;;;;;;;;;;;;;;;15.64;86.39;102204.59;4967712;28;20046;-73
2023/10/08 03:54:48;;;;;;;11.55;6.25;;;;;;;15.63;85.94;102205.53;4967585;28;19988;-73
2023/10/08 03:57:25;;;;;;;13.20;5.97;;;;;;;15.63;86.39;102210.84;4965956;28;20097;-72
2023/10/08 03:59:58;;;;;;;12.90;6.07;;;;;;;15.63;86.66;102203.75;4966348;28;20551;-73
2023/10/08 04:02:39;;;;;;;13.00;5.93;;;;;;;15.64;86.66;102191.31;4967321;28;20081;-72
2023/10/08 04:05:19;;;;;;;11.63;6.03;;;;;;;15.64;86.84;102186.00;4966727;28;20057;-73
2023/10/08 04:13:08;;;;;;;13.73;6.40;;;;;;;15.59;87.22;102172.84;4967351;28;20475;-73
2023/10/08 04:15:41;;;;;;;15.77;6.38;;;;;;;15.60;87.33;102184.38;4967046;28;20047;-72
2023/10/08 04:18:10;;;;;;;12.73;6.20;;;;;;;15.59;87.30;102175.50;4967005;28;20043;-73
2023/10/08 04:23:13;;;;;;;11.52;5.70;;;;;;;15.56;87.46;102223.47;4967196;28;20053;-73
2023/10/08 04:25:44;;;;;;;13.30;6.22;;;;;;;15.52;87.41;102214.69;4965976;28;20149;-73
2023/10/08 04:28:14;;;;;;;13.10;5.95;;;;;;;15.53;87.22;102224.41;4964313;28;20046;-73
2023/10/08 04:30:43;;;;;;;11.48;5.68;;;;;;;15.53;87.65;102221.75;4966003;28;20058;-73
2023/10/08 04:33:14;;;;;;;11.68;6.20;;;;;;;15.56;87.62;102230.56;4966889;28;20047;-73
2023/10/08 04:35:48;;;;;;;14.65;6.38;;;;;;;15.55;87.92;102235.00;4966439;28;20093;-73
2023/10/08 04:38:21;;;;;;;14.77;6.72;;;;;;;15.55;87.85;102242.09;4961541;28;20126;-75
2023/10/08 04:40:53;;;;;;;14.00;7.03;;;;;;;15.53;87.84;102253.63;4959443;28;20035;-73
2023/10/08 04:43:25;;;;;;;16.58;7.07;;;;;;;15.51;87.89;102250.19;4960932;28;20114;-73
2023/10/08 04:45:59;;;;;;;19.17;6.47;;;;;;;15.50;88.38;102269.69;4962228;28;20038;-73
2023/10/08 04:48:31;;;;;;;15.35;7.15;;;;;;;15.48;88.70;102268.84;4961698;28;20035;-73
2023/10/08 04:50:59;;;;;;;12.70;6.88;;;;;;;15.46;88.87;102280.44;4959585;28;20074;-73
2023/10/08 04:53:35;;;;;;;14.15;6.75;;;;;;;15.43;89.13;102281.38;4959077;28;20193;-74
2023/10/08 04:56:18;;;;;;;13.05;6.40;;;;;;;15.43;89.46;102267.25;4964375;28;21188;-73
2023/10/08 04:58:47;;;;;;;14.65;7.15;;;;;;;15.41;89.49;102275.25;4964478;28;20664;-73
2023/10/08 05:01:17;;;;;;;14.93;6.88;;;;;;;15.43;89.61;102256.63;4966441;28;20089;-73
2023/10/08 05:04:23;;;;;;;13.38;6.95;;;;;;;15.45;89.46;102271.59;4965908;28;20093;-73
2023/10/08 05:06:50;;;;;;;15.02;6.18;;;;;;;15.47;89.35;102253.81;4965168;28;20035;-72
2023/10/08 05:14:28;;;;;;;14.70;6.72;;;;;;;15.44;89.22;102255.69;4970825;28;20039;-73
2023/10/08 05:17:11;;;;;;;18.20;6.93;;;;;;;15.44;89.30;102242.41;4970614;28;20507;-72
2023/10/08 05:22:21;;;;;;;15.52;7.28;;;;;;;15.40;89.40;102244.28;4969427;28;20118;-72
2023/10/08 05:25:07;;;;;;;16.67;7.70;;;;;;;15.38;89.39;102241.66;4969761;28;20056;-72
2023/10/08 05:27:38;;;;;;;17.90;7.28;;;;;;;15.34;89.52;102248.00;4965518;28;20043;-72
2023/10/08 05:38:34;;;;;;;14.10;7.88;;;;;;;15.28;89.80;102268.53;4969185;28;20045;-73
2023/10/08 05:46:39;;;;;;;18.75;7.47;;;;;;;15.24;90.07;102278.38;4954930;28;20496;-74
2023/10/08 06:13:16;;;;;;;16.65;8.00;;;;;;;15.21;90.58;102287.28;4975577;28;20043;-74
2023/10/08 06:18:31;;;;;;;19.90;7.93;;;;;;;15.21;90.42;102267.81;4965795;28;20138;-75
2023/10/08 06:21:08;;;;;;;17.15;7.80;;;;;;;15.24;90.77;102283.69;4964459;28;20042;-72
2023/10/08 06:23:41;;;;;;;14.38;6.93;;;;;;;15.25;90.71;102279.25;4966100;28;20051;-72
2023/10/08 06:28:39;;;;;;;16.48;7.90;;;;;;;15.26;90.90;102304.91;4967015;28;20039;-71
2023/10/08 06:31:06;;;;;;;15.48;7.78;;;;;;;15.26;91.10;102327.00;4966658;28;20142;-72
2023/10/08 06:33:33;;;;;;;14.93;7.85;;;;;;;15.27;91.67;102330.56;4965785;28;20041;-71
2023/10/08 06:36:02;;;;;;;18.55;7.65;;;;;;;15.25;92.10;102324.41;4971058;28;20128;-71
2023/10/08 06:38:32;;;;;;;17.90;8.82;;;;;;;15.21;92.32;102313.00;4963731;28;20046;-70
2023/10/08 06:44:02;;;;;;;13.40;8.15;;;;;;;15.29;92.49;102316.31;4966429;28;20533;-71
2023/10/08 06:46:34;;;;;;;15.95;8.25;;;;;;;15.36;92.54;102301.06;4964843;28;20053;-71
2023/10/08 06:49:11;;;;;;;16.88;8.95;;;;;;;15.41;92.24;102322.22;4965947;28;20039;-70
2023/10/08 06:51:45;;;;;;;18.13;8.93;;;;;;;15.44;92.29;102335.41;4968492;28;20055;-71
2023/10/08 06:54:17;;;;;;;17.40;8.30;;;;;;;15.45;92.53;102350.47;4967134;28;20117;-71
2023/10/08 06:56:51;;;;;;;13.45;7.07;;;;;;;15.45;92.69;102364.59;4969093;28;20035;-72
2023/10/08 06:59:23;;;;;;;17.13;7.80;;;;;;;15.48;93.33;102369.84;4967884;28;20623;-72
2023/10/08 07:01:51;;;;;;;23.95;8.55;;;;;;;15.41;94.16;102362.97;4967893;28;20046;-72
2023/10/08 07:04:21;;;;;;;21.55;8.20;;;;;;;15.35;95.65;102361.34;4969220;28;20062;-72
2023/10/08 07:06:50;;;;;;;22.33;7.68;;;;;;;15.34;97.06;102353.38;4958702;28;20039;-71
2023/10/08 07:11:56;;;;;;;27.95;8.57;;;;;;;15.16;99.02;102363.59;4959876;28;20046;-71
2023/10/08 07:14:29;;;;;;;25.90;7.13;;;;;;;15.11;99.81;102360.16;4965246;28;20129;-71
2023/10/08 07:17:00;;;;;;;28.50;7.50;;;;;;;15.04;100.00;102367.44;4962697;28;20098;-72
2023/10/08 07:19:33;;;;;;;21.90;7.25;;;;;;;15.12;100.00;102376.97;4964199;28;20879;-71
2023/10/08 07:22:17;;;;;;;20.65;7.60;;;;;;;15.05;100.00;102374.50;4964022;28;20039;-70
2023/10/08 07:24:50;;;;;;;21.40;7.22;;;;;;;15.05;100.00;102376.25;4965048;28;20039;-71
2023/10/08 07:27:21;;;;;;;23.63;7.80;;;;;;;15.05;99.80;102379.78;4967656;28;20035;-71
2023/10/08 07:29:49;;;;;;;18.63;6.60;;;;;;;15.00;100.00;102384.34;4966208;28;20558;-72
2023/10/08 07:32:18;;;;;;;17.40;6.40;;;;;;;14.93;100.00;102385.41;4966975;28;20043;-70
2023/10/08 07:34:46;;;;;;;16.92;6.70;;;;;;;14.88;100.00;102388.16;4955603;28;20464;-71
2023/10/08 07:37:15;;;;;;;19.15;6.68;;;;;;;14.80;99.99;102383.94;4953796;28;20038;-71
2023/10/08 07:39:46;;;;;;;14.40;6.50;;;;;;;14.71;100.00;102377.94;4965015;28;20081;-71
2023/10/08 07:42:14;;;;;;;16.95;7.32;;;;;;;14.66;100.00;102384.22;4966700;28;20050;-72
2023/10/08 07:44:41;;;;;;;17.52;6.60;;;;;;;14.61;100.00;102400.25;4967473;28;20126;-70
2023/10/08 07:47:12;;;;;;;22.17;7.43;;;;;;;14.58;100.00;102395.00;4964213;28;20038;-71
2023/10/08 07:49:43;;;;;;;16.13;6.70;;;;;;;14.59;100.00;102383.50;4960936;28;20051;-71
2023/10/08 07:52:15;;;;;;;16.23;7.15;;;;;;;14.64;100.00;102391.34;4963745;28;20053;-71
2023/10/08 07:54:43;;;;;;;15.88;7.60;;;;;;;14.68;100.00;102379.78;4965770;28;20049;-71
2023/10/08 07:57:17;;;;;;;18.90;6.60;;;;;;;14.74;100.00;102392.91;4964841;28;20043;-71
2023/10/08 07:59:55;;;;;;;12.77;6.85;;;;;;;14.82;100.00;102392.75;4965624;28;20130;-71
2023/10/08 08:02:23;;;;;;;12.05;7.07;;;;;;;14.85;100.00;102393.53;4953139;28;20042;-71
2023/10/08 08:04:52;;;;;;;12.48;6.85;;;;;;;14.84;100.00;102396.25;4961079;28;20031;-71
2023/10/08 08:07:21;;;;;;;15.75;7.43;;;;;;;14.87;100.00;102399.69;4961245;28;20086;-71
2023/10/08 08:09:51;;;;;;;15.05;7.40;;;;;;;14.93;100.00;102406.66;4965067;28;20049;-67
2023/10/08 08:12:21;;;;;;;13.90;7.15;;;;;;;14.98;100.00;102407.38;4965344;28;20682;-67
2023/10/08 08:14:51;;;;;;;14.30;6.03;;;;;;;15.03;100.00;102407.28;4966780;28;20046;-67
2023/10/08 08:17:19;;;;;;;10.48;5.20;;;;;;;15.07;99.54;102396.53;4962292;28;20094;-67
2023/10/08 08:19:48;;;;;;;8.57;4.68;;;;;;;15.10;98.60;102408.00;4966439;28;20124;-67
2023/10/08 08:22:21;;;;;;;9.25;4.32;;;;;;;15.17;98.12;102418.44;4966128;28;20399;-67
2023/10/08 08:25:15;;;;;;;7.32;3.70;;;;;;;15.31;96.40;102414.59;4948788;28;20126;-67
2023/10/08 08:27:48;;;;;;;7.53;3.28;;;;;;;15.23;96.49;102414.78;4961829;28;20718;-67
2023/10/08 08:30:16;;;;;;;7.97;3.30;;;;;;;15.23;95.96;102425.41;4960903;28;20089;-67
2023/10/08 08:32:49;;;;;;;5.80;2.92;;;;;;;15.24;95.65;102431.56;4958475;28;20817;-68
2023/10/08 08:35:19;;;;;;;7.78;3.10;;;;;;;15.11;96.00;102436.31;4955791;28;20243;-68
2023/10/08 08:37:49;;;;;;;7.22;2.75;;;;;;;15.13;95.13;102453.09;4963504;28;20137;-68
2023/10/08 08:40:24;;;;;;;7.53;3.42;;;;;;;14.99;96.04;102464.91;4964724;28;20047;-69
2023/10/08 08:42:58;;;;;;;6.47;2.30;;;;;;;14.94;96.18;102469.47;4960961;28;20054;-69
2023/10/08 08:45:26;;;;;;;8.05;3.00;;;;;;;14.93;95.89;102464.16;4963367;28;20042;-68
2023/10/08 08:47:53;;;;;;;7.35;2.05;;;;;;;14.93;96.15;102462.41;4962848;28;20042;-69
2023/10/08 08:50:21;;;;;;;4.65;2.25;;;;;;;14.89;96.28;102468.69;4966919;28;20046;-68
2023/10/08 08:52:51;;;;;;;7.10;2.88;;;;;;;14.86;96.20;102479.34;4966211;28;20062;-68
2023/10/08 08:55:20;;;;;;;5.32;2.47;;;;;;;14.86;96.47;102477.59;4965389;28;20074;-68
2023/10/08 08:57:51;;;;;;;4.13;1.98;;;;;;;14.90;96.22;102481.06;4951699;28;20043;-69
2023/10/08 09:00:20;;;;;;;5.65;2.65;;;;;;;14.89;96.16;102479.31;4967617;28;20047;-68
2023/10/08 09:02:49;;;;;;;9.52;3.20;;;;;;;14.91;96.67;102474.84;4965086;28;20051;-68
2023/10/08 09:05:33;;;;;;;6.38;2.40;;;;;;;14.97;96.54;102474.69;4981076;28;20070;-68
2023/10/08 09:08:05;;;;;;;6.25;2.42;;;;;;;15.03;95.36;102486.94;4969121;28;20038;-69
2023/10/08 09:10:37;;;;;;;5.50;2.10;;;;;;;15.01;94.50;102473.72;4968564;28;20057;-68
2023/10/08 09:13:09;;;;;;;7.97;3.07;;;;;;;14.99;94.85;102485.28;4968547;28;20046;-69
2023/10/08 09:15:37;;;;;;;3.70;1.92;;;;;;;14.93;94.71;102481.00;4969092;28;20057;-69
2023/10/08 09:18:06;;;;;;;6.43;2.33;;;;;;;14.86;95.10;102492.63;4970755;28;20130;-69
2023/10/08 09:20:43;;;;;;;5.95;2.80;;;;;;;14.77;95.87;102493.72;4968536;28;20134;-68
2023/10/08 09:23:17;;;;;;;9.57;2.60;;;;;;;14.80;95.90;102493.69;4968568;28;20043;-68
2023/10/08 09:25:49;;;;;;;7.15;2.55;;;;;;;14.77;96.06;102496.38;4961703;28;20054;-68
2023/10/08 09:28:18;;;;;;;10.07;2.78;;;;;;;14.82;96.77;102496.28;4961690;28;20109;-68
2023/10/08 09:30:45;;;;;;;5.82;2.20;;;;;;;14.94;96.02;102501.34;4970312;28;20039;-68
2023/10/08 09:33:18;;;;;;;7.93;2.40;;;;;;;14.96;94.90;102486.22;4967898;28;20121;-68
2023/10/08 09:35:46;;;;;;;6.55;2.00;;;;;;;15.01;95.58;102488.75;4969948;28;20874;-68
2023/10/08 09:38:22;;;;;;;6.28;1.88;;;;;;;15.26;93.61;102486.41;4968252;28;20089;-68
2023/10/08 09:40:53;;;;;;;6.20;1.77;;;;;;;15.34;93.40;102481.81;4967816;28;20050;-68
2023/10/08 09:43:25;;;;;;;7.68;1.98;;;;;;;15.57;93.50;102483.00;4967914;28;20077;-68
2023/10/08 09:46:13;;;;;;;8.02;2.00;;;;;;;15.81;90.36;102464.66;4967976;28;20042;-69
2023/10/08 09:48:44;;;;;;;6.25;2.00;;;;;;;15.87;89.75;102469.88;4962415;28;20035;-68
2023/10/08 09:51:12;;;;;;;5.65;1.80;;;;;;;15.97;90.29;102467.84;4965517;28;20074;-69
2023/10/08 09:53:46;;;;;;;8.02;2.17;;;;;;;16.13;89.36;102454.97;4963561;28;20031;-67
2023/10/08 09:56:15;;;;;;;6.43;1.95;;;;;;;16.21;89.14;102466.28;4963675;28;20615;-67
2023/10/08 09:58:45;;;;;;;7.03;2.00;;;;;;;16.21;88.93;102465.41;4965859;28;20420;-68
2023/10/08 10:01:12;;;;;;;4.88;1.80;;;;;;;16.28;88.26;102466.97;4967756;28;20478;-67
2023/10/08 10:03:42;;;;;;;7.38;2.00;;;;;;;16.29;87.45;102471.38;4965949;28;20045;-68
2023/10/08 10:06:15;;;;;;;9.55;2.13;;;;;;;16.24;87.65;102476.84;4959638;28;20035;-68
2023/10/08 10:08:44;;;;;;;11.90;3.30;;;;;;;16.27;87.87;102470.56;4965279;28;20046;-67
2023/10/08 10:11:11;;;;;;;12.32;3.28;;;;;;;16.35;88.08;102478.31;4962957;28;20714;-67
2023/10/08 10:13:49;;;;;;;9.10;3.05;;;;;;;16.37;86.94;102474.69;4965166;28;20570;-67
2023/10/08 10:16:22;;;;;;;7.03;2.30;;;;;;;16.40;86.89;102477.28;4967839;28;20049;-69
2023/10/08 10:18:49;;;;;;;6.60;2.33;;;;;;;16.46;86.19;102476.22;4965869;28;20268;-67
2023/10/08 10:21:17;;;;;;;4.35;1.85;;;;;;;16.46;86.20;102477.09;4966556;28;20656;-68
2023/10/08 10:23:45;;;;;;;6.90;1.65;;;;;;;16.46;85.44;102487.72;4956358;28;20965;-68
2023/10/08 10:26:33;;;;;;;6.75;2.33;;;;;;;16.36;85.82;102483.59;4963514;28;20078;-69
2023/10/08 10:29:10;;;;;;;5.60;3.13;;;;;;;16.38;86.72;102476.44;4964994;28;20522;-68
2023/10/08 10:31:38;;;;;;;5.28;2.30;;;;;;;16.40;87.05;102476.38;4975700;28;20054;-68
2023/10/08 10:34:09;;;;;;;5.35;2.90;;;;;;;16.47;86.90;102480.63;4961889;28;20043;-68
2023/10/08 10:36:39;;;;;;;7.72;3.70;;;;;;;16.53;86.78;102483.09;4966059;28;20082;-68
2023/10/08 10:39:16;;;;;;;6.60;3.70;;;;;;;16.55;86.06;102483.06;4962849;28;20055;-68
2023/10/08 10:41:48;;;;;;;5.80;3.97;;;;;;;16.55;86.25;102475.06;4956685;28;20117;-68
2023/10/08 10:44:16;;;;;;;6.35;3.35;;;;;;;16.63;86.22;102480.16;4966922;28;20166;-67
2023/10/08 10:46:50;;;;;;;5.68;3.60;;;;;;;16.67;85.82;102484.50;4964133;28;20066;-68
2023/10/08 10:49:21;;;;;;;9.77;4.28;;;;;;;16.73;85.25;102489.63;4965135;28;20441;-68
2023/10/08 10:51:57;;;;;;;6.80;4.32;;;;;;;16.74;85.03;102491.38;4963860;28;20148;-68
2023/10/08 10:54:25;;;;;;;6.90;3.85;;;;;;;16.77;84.66;102489.47;4948242;28;20048;-68
2023/10/08 10:57:18;;;;;;;5.65;3.85;;;;;;;16.82;85.09;102481.34;4947515;28;20854;-68
2023/10/08 10:59:52;;;;;;;7.82;3.95;;;;;;;16.97;84.62;102485.38;4959452;28;20043;-67
2023/10/08 11:02:30;;;;;;;5.65;3.13;;;;;;;17.08;84.13;102485.91;4956470;28;20130;-68
2023/10/08 11:05:09;;;;;;;6.72;3.97;;;;;;;17.08;83.67;102487.72;4964894;28;20042;-67
2023/10/08 11:07:40;;;;;;;5.95;3.47;;;;;;;17.08;83.76;102487.72;4966674;28;20047;-68
2023/10/08 11:10:15;;;;;;;5.38;3.30;;;;;;;17.15;83.56;102485.69;4974720;28;20031;-67
2023/10/08 11:12:46;;;;;;;6.43;3.05;;;;;;;17.29;82.71;102479.94;4959719;28;20053;-67
2023/10/08 11:15:17;;;;;;;3.58;2.67;;;;;;;17.24;83.05;102488.09;4960332;28;20089;-67
2023/10/08 11:17:48;;;;;;;5.13;2.83;;;;;;;17.19;83.37;102484.69;4952636;28;20054;-67
2023/10/08 11:20:29;;;;;;;4.32;3.45;;;;;;;17.14;83.51;102483.97;4978172;28;20043;-67
2023/10/08 11:23:17;;;;;;;4.93;3.67;;;;;;;17.07;83.51;102478.81;4964369;28;20153;-68
2023/10/08 11:26:05;;;;;;;4.32;2.90;;;;;;;17.02;83.76;102479.88;4964236;28;20130;-67
2023/10/08 11:28:41;;;;;;;7.22;3.20;;;;;;;16.91;83.80;102481.06;4957711;28;20055;-67
2023/10/08 11:31:19;;;;;;;6.18;3.17;;;;;;;16.86;84.41;102469.69;4960816;28;20069;-67
2023/10/08 11:33:54;;;;;;;4.85;2.75;;;;;;;16.87;84.97;102467.91;4964416;28;20067;-67
2023/10/08 11:36:29;;;;;;;5.20;3.05;;;;;;;17.00;84.59;102469.28;4958755;28;20098;-67
2023/10/08 11:39:11;;;;;;;5.03;2.80;;;;;;;17.05;85.56;102463.81;4961514;28;20039;-67
2023/10/08 11:41:50;;;;;;;6.38;2.50;;;;;;;17.29;85.21;102464.81;4964897;28;20066;-67
2023/10/08 11:44:23;;;;;;;4.88;2.47;;;;;;;17.47;84.40;102451.78;4964173;28;20042;-67
2023/10/08 11:46:51;;;;;;;5.43;2.53;;;;;;;17.61;83.52;102457.53;4965599;28;20666;-68
2023/10/08 11:49:19;;;;;;;6.88;2.65;;;;;;;17.61;82.86;102462.88;4966666;28;20554;-68
2023/10/08 11:51:46;;;;;;;5.60;2.92;;;;;;;17.52;82.75;102461.38;4956686;28;20046;-68
2023/10/08 11:54:14;;;;;;;4.45;2.60;;;;;;;17.38;82.78;102458.31;4966177;28;20130;-67
2023/10/08 11:56:42;;;;;;;4.53;2.20;;;;;;;17.34;83.28;102470.00;4961879;28;20055;-68
2023/10/08 11:59:09;;;;;;;3.85;2.08;;;;;;;17.27;83.21;102463.13;4963589;28;20039;-68
2023/10/08 12:01:41;;;;;;;5.30;2.30;;;;;;;17.19;83.58;102453.59;4961484;28;20551;-68
2023/10/08 12:04:15;;;;;;;5.35;2.42;;;;;;;17.11;83.97;102449.44;4955297;28;20885;-67
2023/10/08 12:06:46;;;;;;;5.78;2.45;;;;;;;17.00;84.28;102442.66;4964225;28;20062;-68
2023/10/08 12:09:14;;;;;;;5.63;2.47;;;;;;;16.97;84.91;102448.06;4964556;28;20039;-67
2023/10/08 12:11:42;;;;;;;8.68;2.65;;;;;;;16.98;84.95;102439.16;4955587;28;20047;-67
2023/10/08 12:14:10;;;;;;;6.03;2.35;;;;;;;16.99;85.08;102440.91;4952298;28;20075;-68
2023/10/08 12:16:40;;;;;;;6.05;2.40;;;;;;;16.96;85.32;102438.34;4960472;28;20047;-67
2023/10/08 12:19:16;;;;;;;6.25;2.60;;;;;;;16.98;85.54;102431.16;4966377;28;20570;-68
2023/10/08 12:21:47;;;;;;;6.80;2.80;;;;;;;17.00;85.25;102437.31;4960966;28;20043;-67
2023/10/08 12:24:14;;;;;;;9.02;3.40;;;;;;;17.03;85.59;102441.69;4967475;28;20047;-67
2023/10/08 12:26:45;;;;;;;7.68;3.72;;;;;;;17.04;84.82;102441.63;4963125;28;20047;-68
2023/10/08 12:29:14;;;;;;;6.47;3.40;;;;;;;16.98;84.48;102438.31;4965485;28;20065;-68
2023/10/08 12:31:41;;;;;;;9.73;4.43;;;;;;;16.91;84.75;102440.25;4963318;28;20074;-68
2023/10/08 12:34:11;;;;;;;8.90;4.18;;;;;;;16.85;85.95;102441.31;4959070;28;20102;-67
2023/10/08 12:36:39;;;;;;;10.00;4.40;;;;;;;16.84;86.45;102439.56;4967264;28;20051;-68
2023/10/08 12:39:14;;;;;;;8.18;4.50;;;;;;;16.87;86.88;102426.16;4968513;28;20049;-67
2023/10/08 12:41:46;;;;;;;8.98;4.68;;;;;;;17.01;86.80;102416.88;4965032;28;20403;-69
2023/10/08 12:44:15;;;;;;;10.73;4.78;;;;;;;17.17;87.20;102415.47;4960882;28;20039;-67
2023/10/08 12:46:43;;;;;;;9.85;5.07;;;;;;;17.47;87.74;102415.34;4954816;28;20039;-67
2023/10/08 12:49:12;;;;;;;10.52;5.22;;;;;;;17.74;87.57;102409.97;4963395;28;20129;-68
2023/10/08 12:51:41;;;;;;;13.15;7.10;;;;;;;17.96;87.02;102403.84;4964018;28;20047;-68
2023/10/08 12:54:11;;;;;;;13.57;8.18;;;;;;;18.08;85.44;102397.22;4961084;28;20059;-68
2023/10/08 12:56:44;;;;;;;11.98;7.93;;;;;;;18.16;84.23;102398.69;4967837;28;20129;-68